Chapel Hill, Texas
Current Conditions -  °F | °C
As of 11:53 PM on Thursday 27 Nov 2014 (Local Time) from KTYR Reporting Station
Clear Clear  
Wind Chill: 39°   Ceiling: Unl
Heat Index: 43°   Visibility: 10mi
Dew Point: 29°   Wind: 6mph
Humidity: 58%   Direction: 150°SSE
Pressure: 30.39"   Gusts: NA
Location:  32.3003°N, 95.1871°W
Report Text: KTYR 280553Z 15005KT 10SM CLR 06/M02 A3039 RMK AO2 SLP289 T00611017 10122 20056 401720044 58005
Loading
Personal Weather Stations






























Interactive Weather Map New forecast layout! Learn more

10-Day Weather Forecast

Advertisements
Track Severe Weather on mobile